Time;durP1;ratioP1;P1;durP2;ratioP2;P2;SDS_P1;SDS_P2;PMS_P1;PMS_P2;Temp;Humidity;BMP_temperature;BMP_pressure;BME280_temperature;BME280_humidity;BME280_pressure;Samples;Min_cycle;Max_cycle;Signal;HPM_P1;HPM_P2
2023/09/19 00:01:45;;;;;;;;;;;20.30;60.00;;;;;;5032075;27;86493;-54
2023/09/19 00:04:12;;;;;;;;;;;20.30;60.10;;;;;;5025775;28;88750;-53
2023/09/19 00:06:38;;;;;;;;;;;20.20;60.00;;;;;;5024458;28;89513;-53
2023/09/19 00:09:04;;;;;;;;;;;20.20;60.00;;;;;;5030364;28;88212;-53
2023/09/19 00:11:30;;;;;;;;;;;20.20;60.10;;;;;;5030667;28;88223;-55
2023/09/19 00:13:57;;;;;;;;;;;20.20;60.10;;;;;;5028652;28;87080;-53
2023/09/19 00:16:22;;;;;;;;;;;20.20;60.10;;;;;;5033561;28;88947;-52
2023/09/19 00:18:49;;;;;;;;;;;20.20;60.00;;;;;;5031459;28;88252;-53
2023/09/19 00:21:15;;;;;;;;;;;20.20;60.00;;;;;;5032270;28;87126;-54
2023/09/19 00:23:41;;;;;;;;;;;20.10;60.00;;;;;;5032878;28;87603;-50
2023/09/19 00:26:06;;;;;;;;;;;20.10;60.00;;;;;;5029492;28;89218;-53
2023/09/19 00:28:32;;;;;;;;;;;20.10;60.10;;;;;;5032852;28;87723;-53
2023/09/19 00:31:01;;;;;;;;;;;20.10;60.00;;;;;;5032381;28;87730;-52
2023/09/19 00:33:26;;;;;;;;;;;20.10;60.00;;;;;;5032023;28;88064;-53
2023/09/19 00:35:53;;;;;;;;;;;20.00;60.00;;;;;;5032343;28;88775;-51
2023/09/19 00:38:22;;;;;;;;;;;20.10;60.10;;;;;;5031115;28;88675;-53
2023/09/19 00:40:48;;;;;;;;;;;20.00;60.00;;;;;;5032834;28;87095;-52
2023/09/19 00:43:14;;;;;;;;;;;20.10;60.00;;;;;;5027699;28;88020;-50
2023/09/19 00:45:43;;;;;;;;;;;20.00;60.70;;;;;;5032752;28;88409;-50
2023/09/19 00:48:09;;;;;;;;;;;20.00;60.10;;;;;;5031782;28;87176;-55
2023/09/19 00:50:35;;;;;;;;;;;20.00;60.00;;;;;;5031968;28;89176;-54
2023/09/19 00:53:01;;;;;;;;;;;20.00;59.90;;;;;;5035875;28;88208;-48
2023/09/19 00:55:29;;;;;;;;;;;20.00;60.00;;;;;;5030292;27;89038;-54
2023/09/19 00:57:56;;;;;;;;;;;19.90;60.00;;;;;;5028826;28;90248;-50
2023/09/19 01:00:23;;;;;;;;;;;19.90;59.90;;;;;;5032674;28;87050;-55
2023/09/19 01:02:48;;;;;;;;;;;19.90;60.00;;;;;;5031155;28;89045;-53
2023/09/19 01:05:14;;;;;;;;;;;19.90;60.00;;;;;;5031180;28;88168;-53
2023/09/19 01:07:44;;;;;;;;;;;19.90;59.90;;;;;;5032907;28;87108;-53
2023/09/19 01:10:14;;;;;;;;;;;19.90;60.00;;;;;;5029955;28;88864;-50
2023/09/19 01:12:47;;;;;;;;;;;19.90;60.00;;;;;;5030140;28;88473;-55
2023/09/19 01:15:21;;;;;;;;;;;19.90;60.00;;;;;;5035507;28;86384;-54
2023/09/19 01:17:51;;;;;;;;;;;19.90;60.00;;;;;;5030191;28;88394;-54
2023/09/19 01:20:21;;;;;;;;;;;19.80;59.90;;;;;;5031839;28;87018;-51
2023/09/19 01:22:47;;;;;;;;;;;19.80;59.90;;;;;;5032169;28;87986;-52
2023/09/19 01:25:28;;;;;;;;;;;19.80;59.90;;;;;;5029359;28;89827;-53
2023/09/19 01:27:53;;;;;;;;;;;19.80;59.90;;;;;;5028721;28;87422;-52
2023/09/19 01:30:22;;;;;;;;;;;19.80;59.90;;;;;;5030347;28;90470;-53
2023/09/19 01:32:52;;;;;;;;;;;19.80;59.90;;;;;;5029412;28;88111;-53
2023/09/19 01:35:18;;;;;;;;;;;19.80;59.90;;;;;;5032226;28;87131;-52
2023/09/19 01:37:44;;;;;;;;;;;19.80;59.80;;;;;;5033859;28;87597;-49
2023/09/19 01:40:16;;;;;;;;;;;19.70;59.80;;;;;;5031422;28;86357;-53
2023/09/19 01:43:00;;;;;;;;;;;19.70;59.80;;;;;;5032356;28;87399;-53
2023/09/19 01:45:27;;;;;;;;;;;19.70;59.70;;;;;;5032927;28;88106;-52
2023/09/19 01:47:55;;;;;;;;;;;19.70;59.80;;;;;;5035860;28;88403;-52
2023/09/19 01:50:28;;;;;;;;;;;19.70;59.80;;;;;;5032995;28;88494;-52
2023/09/19 01:52:56;;;;;;;;;;;19.70;59.90;;;;;;5034166;28;88749;-54
2023/09/19 01:55:24;;;;;;;;;;;19.60;59.90;;;;;;5035724;28;87440;-54
2023/09/19 01:58:07;;;;;;;;;;;19.70;59.80;;;;;;5031457;28;87673;-51
2023/09/19 02:00:34;;;;;;;;;;;19.60;59.80;;;;;;5037013;28;89768;-51
2023/09/19 02:02:59;;;;;;;;;;;19.60;59.80;;;;;;5033183;27;87674;-52
2023/09/19 02:05:25;;;;;;;;;;;19.60;59.80;;;;;;5036281;28;87520;-53
2023/09/19 02:07:54;;;;;;;;;;;19.60;59.80;;;;;;5033322;28;87267;-53
2023/09/19 02:10:20;;;;;;;;;;;19.60;59.70;;;;;;5034875;28;87894;-51
2023/09/19 02:12:46;;;;;;;;;;;19.60;59.80;;;;;;5031989;28;88589;-54
2023/09/19 02:15:11;;;;;;;;;;;19.60;59.80;;;;;;5035141;28;87163;-54
2023/09/19 02:17:37;;;;;;;;;;;19.60;59.70;;;;;;5033106;27;87816;-52
2023/09/19 02:20:10;;;;;;;;;;;19.50;59.80;;;;;;5038640;28;88359;-54
2023/09/19 02:22:36;;;;;;;;;;;19.50;59.80;;;;;;5033786;28;88795;-52
2023/09/19 02:25:05;;;;;;;;;;;19.50;59.90;;;;;;5034065;28;88248;-50
2023/09/19 02:27:30;;;;;;;;;;;19.50;59.80;;;;;;5031153;28;87082;-53
2023/09/19 02:29:56;;;;;;;;;;;19.50;59.80;;;;;;5035160;28;87572;-53
2023/09/19 02:32:22;;;;;;;;;;;19.40;59.80;;;;;;5035599;28;88134;-53
2023/09/19 02:34:48;;;;;;;;;;;19.50;59.80;;;;;;5033003;28;87040;-54
2023/09/19 02:37:16;;;;;;;;;;;19.40;59.80;;;;;;5034214;28;88042;-53
2023/09/19 02:39:41;;;;;;;;;;;19.40;59.70;;;;;;5033530;28;90233;-53
2023/09/19 02:42:07;;;;;;;;;;;19.40;59.70;;;;;;5035266;28;87240;-54
2023/09/19 02:44:33;;;;;;;;;;;19.40;59.80;;;;;;5032519;28;88360;-52
2023/09/19 02:46:59;;;;;;;;;;;19.40;59.80;;;;;;5032308;28;87006;-53
2023/09/19 02:49:25;;;;;;;;;;;19.40;59.90;;;;;;5035137;28;87212;-54
2023/09/19 02:51:51;;;;;;;;;;;19.40;59.80;;;;;;5032299;28;89615;-52
2023/09/19 02:54:17;;;;;;;;;;;19.40;59.80;;;;;;5035495;27;86450;-53
2023/09/19 02:56:43;;;;;;;;;;;19.30;59.80;;;;;;5033232;28;88685;-53
2023/09/19 02:59:10;;;;;;;;;;;19.40;59.80;;;;;;5030973;28;88187;-52
2023/09/19 03:01:37;;;;;;;;;;;19.40;59.70;;;;;;5033141;28;88007;-50
2023/09/19 03:04:02;;;;;;;;;;;19.30;59.60;;;;;;5034217;28;89951;-54
2023/09/19 03:06:30;;;;;;;;;;;19.30;59.70;;;;;;5034668;28;87153;-52
2023/09/19 03:08:56;;;;;;;;;;;19.30;60.30;;;;;;5033490;28;87621;-50
2023/09/19 03:11:22;;;;;;;;;;;19.30;59.70;;;;;;5032803;28;88486;-50
2023/09/19 03:13:54;;;;;;;;;;;19.30;59.60;;;;;;5033728;28;87115;-53
2023/09/19 03:16:23;;;;;;;;;;;19.20;59.60;;;;;;5029132;28;87710;-52
2023/09/19 03:18:48;;;;;;;;;;;19.20;59.60;;;;;;5032674;28;87426;-50
2023/09/19 03:21:17;;;;;;;;;;;19.20;59.60;;;;;;5033412;28;87089;-51
2023/09/19 03:23:46;;;;;;;;;;;19.20;59.60;;;;;;5033941;28;88653;-54
2023/09/19 03:26:12;;;;;;;;;;;19.20;59.70;;;;;;5033402;28;89143;-53
2023/09/19 03:28:38;;;;;;;;;;;19.20;59.60;;;;;;5031677;28;88647;-52
2023/09/19 03:31:07;;;;;;;;;;;19.20;59.60;;;;;;5030489;28;88415;-54
2023/09/19 03:33:33;;;;;;;;;;;19.20;59.60;;;;;;5032803;28;87126;-52
2023/09/19 03:36:00;;;;;;;;;;;19.20;59.70;;;;;;5032536;28;89260;-50
2023/09/19 03:38:26;;;;;;;;;;;19.20;59.60;;;;;;5031209;28;88202;-55
2023/09/19 03:40:51;;;;;;;;;;;19.20;59.60;;;;;;5034603;28;86904;-52
2023/09/19 03:43:17;;;;;;;;;;;19.20;59.60;;;;;;5030678;28;88033;-50
2023/09/19 03:45:43;;;;;;;;;;;19.20;59.50;;;;;;5029194;28;88118;-53
2023/09/19 03:48:09;;;;;;;;;;;19.10;59.40;;;;;;5033511;28;87255;-54
2023/09/19 03:50:35;;;;;;;;;;;19.10;59.50;;;;;;5026716;28;89122;-52
2023/09/19 03:53:02;;;;;;;;;;;19.10;59.50;;;;;;5032229;28;87134;-53
2023/09/19 03:55:27;;;;;;;;;;;19.10;59.40;;;;;;5034511;28;86998;-48
2023/09/19 03:57:53;;;;;;;;;;;19.10;59.50;;;;;;5030511;28;89534;-51
2023/09/19 04:00:21;;;;;;;;;;;19.10;59.50;;;;;;5034440;28;87670;-52
2023/09/19 04:02:51;;;;;;;;;;;19.10;59.50;;;;;;5032047;28;87665;-54
2023/09/19 04:05:17;;;;;;;;;;;19.00;59.50;;;;;;5032821;28;88280;-50
2023/09/19 04:07:43;;;;;;;;;;;19.00;59.50;;;;;;5031472;28;86449;-55
2023/09/19 04:10:10;;;;;;;;;;;19.00;59.50;;;;;;5028293;28;87583;-50
2023/09/19 04:12:35;;;;;;;;;;;19.00;59.40;;;;;;5033396;28;87138;-53
2023/09/19 04:15:01;;;;;;;;;;;19.00;59.40;;;;;;5029801;28;88005;-53
2023/09/19 04:17:26;;;;;;;;;;;19.00;59.40;;;;;;5033854;28;88224;-55
2023/09/19 04:19:53;;;;;;;;;;;19.00;59.30;;;;;;5027742;28;89280;-51
2023/09/19 04:22:18;;;;;;;;;;;19.00;59.30;;;;;;5030422;28;88840;-55
2023/09/19 04:24:44;;;;;;;;;;;18.90;59.40;;;;;;5033706;28;88285;-52
2023/09/19 04:27:09;;;;;;;;;;;18.90;59.40;;;;;;5032033;28;87179;-53
2023/09/19 04:29:35;;;;;;;;;;;19.00;59.40;;;;;;5029864;28;89510;-54
2023/09/19 04:32:01;;;;;;;;;;;18.90;59.30;;;;;;5030377;28;86409;-52
2023/09/19 04:34:27;;;;;;;;;;;18.90;59.30;;;;;;5032140;28;87070;-54
2023/09/19 04:36:53;;;;;;;;;;;19.00;59.30;;;;;;5029637;28;89566;-54
2023/09/19 04:39:18;;;;;;;;;;;18.90;59.20;;;;;;5024722;28;88140;-51
2023/09/19 04:41:44;;;;;;;;;;;18.90;59.30;;;;;;5028608;27;89836;-54
2023/09/19 04:44:10;;;;;;;;;;;18.90;59.40;;;;;;5030249;28;87292;-50
2023/09/19 04:46:36;;;;;;;;;;;18.90;59.30;;;;;;5029207;28;87226;-52
2023/09/19 04:49:02;;;;;;;;;;;18.90;59.30;;;;;;5025260;28;88602;-52
2023/09/19 04:51:32;;;;;;;;;;;18.90;59.30;;;;;;5031708;28;88360;-53
2023/09/19 04:53:58;;;;;;;;;;;18.90;59.40;;;;;;5033759;28;87574;-53
2023/09/19 04:56:24;;;;;;;;;;;18.90;59.40;;;;;;5027218;28;87558;-51
2023/09/19 04:58:49;;;;;;;;;;;18.80;59.40;;;;;;5027425;28;88082;-54
2023/09/19 05:01:15;;;;;;;;;;;18.80;59.40;;;;;;5032960;28;87696;-50
2023/09/19 05:03:41;;;;;;;;;;;18.80;59.40;;;;;;5031153;28;90692;-52
2023/09/19 05:06:06;;;;;;;;;;;18.80;59.30;;;;;;5027544;28;87583;-55
2023/09/19 05:08:32;;;;;;;;;;;18.80;59.30;;;;;;5025272;28;89235;-51
2023/09/19 05:10:58;;;;;;;;;;;18.80;59.40;;;;;;5030407;28;89504;-52
2023/09/19 05:13:24;;;;;;;;;;;18.80;59.30;;;;;;5032459;28;87168;-52
2023/09/19 05:15:52;;;;;;;;;;;18.80;59.30;;;;;;5030726;28;89190;-52
2023/09/19 05:18:18;;;;;;;;;;;18.80;59.40;;;;;;5028933;28;87096;-52
2023/09/19 05:20:43;;;;;;;;;;;18.70;59.30;;;;;;5035694;28;90372;-52
2023/09/19 05:23:11;;;;;;;;;;;18.80;59.40;;;;;;5032979;28;89389;-54
2023/09/19 05:25:37;;;;;;;;;;;18.80;59.40;;;;;;5034282;28;87128;-53
2023/09/19 05:28:05;;;;;;;;;;;18.70;59.40;;;;;;5032736;28;88448;-52
2023/09/19 05:30:35;;;;;;;;;;;18.70;59.40;;;;;;5034866;28;88237;-54
2023/09/19 05:33:02;;;;;;;;;;;18.70;59.50;;;;;;5032307;28;87423;-54
2023/09/19 05:35:27;;;;;;;;;;;18.70;59.50;;;;;;5030034;28;87989;-54
2023/09/19 05:37:54;;;;;;;;;;;18.70;59.50;;;;;;5028039;28;87624;-52
2023/09/19 05:40:20;;;;;;;;;;;18.70;59.50;;;;;;4844496;27;5001537;-49
2023/09/19 05:42:45;;;;;;;;;;;18.70;59.40;;;;;;5042469;27;88983;-55
2023/09/19 05:45:12;;;;;;;;;;;18.70;59.50;;;;;;5040802;27;86374;-54
2023/09/19 05:47:38;;;;;;;;;;;18.70;59.50;;;;;;5044915;27;87044;-56
2023/09/19 05:50:05;;;;;;;;;;;18.70;59.50;;;;;;5043019;27;88305;-55
2023/09/19 05:52:30;;;;;;;;;;;18.80;59.40;;;;;;5045128;27;88073;-54
2023/09/19 05:54:56;;;;;;;;;;;18.70;59.40;;;;;;5044141;27;88808;-51
2023/09/19 05:57:22;;;;;;;;;;;18.70;59.50;;;;;;5047330;27;88466;-52
2023/09/19 05:59:50;;;;;;;;;;;18.70;59.50;;;;;;5042176;27;87859;-52
2023/09/19 06:02:16;;;;;;;;;;;18.70;59.60;;;;;;5041818;27;88340;-50
2023/09/19 06:04:41;;;;;;;;;;;18.70;59.60;;;;;;5042350;28;87387;-55
2023/09/19 06:07:07;;;;;;;;;;;18.70;59.60;;;;;;5044467;28;87673;-51
2023/09/19 06:09:33;;;;;;;;;;;18.70;59.60;;;;;;5041979;27;87697;-52
2023/09/19 06:12:03;;;;;;;;;;;18.70;59.60;;;;;;5045065;27;89028;-55
2023/09/19 06:14:28;;;;;;;;;;;18.70;59.60;;;;;;5040638;28;87006;-53
2023/09/19 06:16:54;;;;;;;;;;;18.70;59.60;;;;;;5043333;27;88527;-52
2023/09/19 06:19:22;;;;;;;;;;;18.60;59.80;;;;;;5048978;27;87469;-50
2023/09/19 06:21:48;;;;;;;;;;;18.70;59.90;;;;;;5039735;27;87270;-53
2023/09/19 06:24:14;;;;;;;;;;;18.60;59.90;;;;;;5042407;28;87161;-54
2023/09/19 06:26:40;;;;;;;;;;;18.60;59.90;;;;;;5043513;27;87797;-51
2023/09/19 06:29:07;;;;;;;;;;;18.60;59.80;;;;;;5046775;27;87432;-53
2023/09/19 06:31:33;;;;;;;;;;;18.60;60.00;;;;;;5043092;27;87263;-52
2023/09/19 06:33:58;;;;;;;;;;;18.60;60.00;;;;;;5044778;27;87897;-55
2023/09/19 06:36:24;;;;;;;;;;;18.60;60.10;;;;;;5044347;27;88284;-51
2023/09/19 06:38:51;;;;;;;;;;;18.50;60.10;;;;;;5045128;27;87261;-51
2023/09/19 06:41:17;;;;;;;;;;;18.60;60.20;;;;;;5042396;27;90377;-51
2023/09/19 06:43:43;;;;;;;;;;;18.50;60.10;;;;;;5043697;27;87416;-52
2023/09/19 06:46:09;;;;;;;;;;;18.60;60.10;;;;;;5044195;27;87605;-54
2023/09/19 06:48:35;;;;;;;;;;;18.60;60.10;;;;;;5042384;27;89995;-53
2023/09/19 06:51:05;;;;;;;;;;;18.60;60.00;;;;;;5044081;28;87182;-54
2023/09/19 06:53:34;;;;;;;;;;;18.60;60.10;;;;;;5041981;27;87899;-53
2023/09/19 06:56:00;;;;;;;;;;;18.60;60.10;;;;;;5039987;28;89608;-49
2023/09/19 06:58:26;;;;;;;;;;;18.60;60.10;;;;;;5038809;27;86335;-53
2023/09/19 07:00:51;;;;;;;;;;;18.60;60.00;;;;;;5045948;28;87173;-52
2023/09/19 07:03:18;;;;;;;;;;;18.60;60.00;;;;;;5042904;27;87411;-52
2023/09/19 07:05:44;;;;;;;;;;;18.60;60.20;;;;;;5044253;27;88956;-52
2023/09/19 07:08:13;;;;;;;;;;;18.60;60.20;;;;;;5042525;27;88331;-51
2023/09/19 07:10:40;;;;;;;;;;;18.50;60.20;;;;;;5043177;27;87139;-51
2023/09/19 07:13:09;;;;;;;;;;;18.60;60.30;;;;;;5041372;27;87950;-53
2023/09/19 07:15:36;;;;;;;;;;;18.50;60.20;;;;;;5044614;27;89560;-54
2023/09/19 07:18:02;;;;;;;;;;;18.50;60.20;;;;;;5042208;27;87965;-53
2023/09/19 07:20:31;;;;;;;;;;;18.50;60.20;;;;;;5043522;28;87502;-53
2023/09/19 07:22:59;;;;;;;;;;;18.50;60.20;;;;;;5043580;27;87529;-54
2023/09/19 07:25:25;;;;;;;;;;;18.60;60.20;;;;;;5041115;27;87942;-50
2023/09/19 07:27:51;;;;;;;;;;;18.50;60.30;;;;;;5043327;28;88583;-51
2023/09/19 07:30:16;;;;;;;;;;;18.50;60.40;;;;;;5041807;27;88029;-53
2023/09/19 07:32:42;;;;;;;;;;;18.50;60.20;;;;;;5040840;27;90075;-50
2023/09/19 07:35:07;;;;;;;;;;;18.50;60.30;;;;;;5039485;28;88842;-52
2023/09/19 07:37:33;;;;;;;;;;;18.50;60.30;;;;;;5042172;28;87506;-52
2023/09/19 07:40:00;;;;;;;;;;;18.50;60.30;;;;;;5042586;27;87945;-50
2023/09/19 07:42:26;;;;;;;;;;;18.50;60.30;;;;;;5041033;27;88037;-54
2023/09/19 07:44:53;;;;;;;;;;;18.50;60.30;;;;;;5041261;27;87560;-50
2023/09/19 07:47:20;;;;;;;;;;;18.50;60.30;;;;;;5042881;28;88571;-49
2023/09/19 07:49:47;;;;;;;;;;;18.50;60.40;;;;;;5042174;27;87144;-53
2023/09/19 07:52:13;;;;;;;;;;;18.50;60.20;;;;;;5040638;27;88397;-52
2023/09/19 07:54:41;;;;;;;;;;;18.50;60.30;;;;;;5037869;27;90382;-54
2023/09/19 07:57:07;;;;;;;;;;;18.50;60.40;;;;;;5042978;28;87647;-54
2023/09/19 07:59:32;;;;;;;;;;;18.50;60.40;;;;;;5041590;27;87726;-52
2023/09/19 08:01:58;;;;;;;;;;;18.50;60.30;;;;;;5037162;27;87380;-51
2023/09/19 08:04:25;;;;;;;;;;;18.60;60.30;;;;;;5039948;28;87222;-50
2023/09/19 08:06:51;;;;;;;;;;;18.50;60.40;;;;;;5045710;27;89167;-54
2023/09/19 08:09:20;;;;;;;;;;;18.60;60.20;;;;;;5040621;27;88806;-49
2023/09/19 08:11:50;;;;;;;;;;;18.50;60.30;;;;;;5039612;27;88875;-53
2023/09/19 08:14:16;;;;;;;;;;;18.60;60.30;;;;;;5040669;28;89153;-54
2023/09/19 08:16:42;;;;;;;;;;;18.60;60.30;;;;;;5042276;28;87128;-50
2023/09/19 08:19:10;;;;;;;;;;;18.50;60.20;;;;;;5039762;27;88020;-54
2023/09/19 08:21:36;;;;;;;;;;;18.50;60.20;;;;;;5036675;27;89306;-54
2023/09/19 08:24:04;;;;;;;;;;;18.60;60.20;;;;;;5041333;28;87202;-49
2023/09/19 08:26:30;;;;;;;;;;;18.60;60.30;;;;;;5044306;27;88758;-49
2023/09/19 08:28:56;;;;;;;;;;;18.60;60.30;;;;;;5040481;27;88320;-53
2023/09/19 08:31:22;;;;;;;;;;;18.50;60.20;;;;;;5039235;27;87557;-51
2023/09/19 08:33:49;;;;;;;;;;;18.50;60.20;;;;;;5041456;27;89685;-49
2023/09/19 08:36:14;;;;;;;;;;;18.60;60.30;;;;;;5041351;27;86345;-51
2023/09/19 08:38:40;;;;;;;;;;;18.50;60.50;;;;;;5039602;27;87213;-50
2023/09/19 08:41:10;;;;;;;;;;;18.50;60.30;;;;;;5041101;27;88067;-51
2023/09/19 08:43:35;;;;;;;;;;;18.50;60.40;;;;;;5041321;27;88509;-53
2023/09/19 08:46:12;;;;;;;;;;;18.50;60.50;;;;;;5040700;27;88220;-54
2023/09/19 08:48:39;;;;;;;;;;;18.50;60.60;;;;;;5045629;27;89754;-54
2023/09/19 08:51:14;;;;;;;;;;;18.50;60.50;;;;;;5041617;27;88590;-52
2023/09/19 08:53:52;;;;;;;;;;;18.50;60.40;;;;;;5040474;28;88595;-53
2023/09/19 08:56:19;;;;;;;;;;;18.60;60.80;;;;;;5044316;27;87151;-51
2023/09/19 08:58:51;;;;;;;;;;;18.50;60.50;;;;;;5044011;27;87935;-53
2023/09/19 09:01:22;;;;;;;;;;;18.60;60.60;;;;;;5041728;28;87420;-54
2023/09/19 09:03:48;;;;;;;;;;;18.60;60.60;;;;;;5044236;27;89002;-50
2023/09/19 09:06:15;;;;;;;;;;;18.60;60.60;;;;;;5043313;27;87670;-55
2023/09/19 09:08:41;;;;;;;;;;;18.60;60.90;;;;;;5042852;27;90270;-54
2023/09/19 09:11:07;;;;;;;;;;;18.60;61.00;;;;;;5048471;27;87203;-54
2023/09/19 09:13:35;;;;;;;;;;;18.60;61.00;;;;;;5043000;27;88095;-55
2023/09/19 09:16:00;;;;;;;;;;;18.60;60.90;;;;;;5043194;27;87546;-53
2023/09/19 09:18:26;;;;;;;;;;;18.60;60.90;;;;;;5043242;28;87064;-53
2023/09/19 09:20:52;;;;;;;;;;;18.60;60.80;;;;;;5044689;27;89475;-51
2023/09/19 09:23:18;;;;;;;;;;;18.50;60.80;;;;;;5041809;27;87119;-53
2023/09/19 09:25:49;;;;;;;;;;;18.60;60.90;;;;;;5043734;27;87252;-53
2023/09/19 09:28:19;;;;;;;;;;;18.60;60.80;;;;;;5041700;28;88630;-51
2023/09/19 09:30:45;;;;;;;;;;;18.60;60.80;;;;;;5043694;27;87154;-51
2023/09/19 09:33:11;;;;;;;;;;;18.60;61.00;;;;;;5047527;27;89747;-54
2023/09/19 09:35:52;;;;;;;;;;;18.60;60.80;;;;;;5047625;27;87304;-54
2023/09/19 09:38:21;;;;;;;;;;;18.60;60.80;;;;;;5043068;27;87339;-54
2023/09/19 09:41:00;;;;;;;;;;;18.60;60.80;;;;;;5047467;27;87948;-50
2023/09/19 09:43:30;;;;;;;;;;;18.60;60.80;;;;;;5042634;27;87404;-51
2023/09/19 09:46:58;;;;;;;;;;;18.60;60.70;;;;;;5040209;27;88881;-51
2023/09/19 09:49:16;;;;;;;;;;;18.60;60.90;;;;;;5042905;28;89028;-50
2023/09/19 09:51:43;;;;;;;;;;;18.70;61.00;;;;;;5045475;27;88291;-52
2023/09/19 09:54:14;;;;;;;;;;;18.60;61.10;;;;;;5040349;27;88545;-52
2023/09/19 09:56:59;;;;;;;;;;;18.70;61.10;;;;;;5043083;28;91132;-52
2023/09/19 09:59:43;;;;;;;;;;;18.70;61.10;;;;;;5038542;28;89508;-54
2023/09/19 10:02:13;;;;;;;;;;;18.70;61.10;;;;;;5040016;27;88662;-50
2023/09/19 10:04:51;;;;;;;;;;;18.70;61.00;;;;;;5041441;28;87125;-54
2023/09/19 10:07:35;;;;;;;;;;;18.70;61.20;;;;;;5044179;27;89211;-54
2023/09/19 10:10:21;;;;;;;;;;;18.70;61.20;;;;;;5040445;27;88647;-50
2023/09/19 10:12:50;;;;;;;;;;;18.60;61.30;;;;;;5040169;27;87121;-52
2023/09/19 10:15:17;;;;;;;;;;;18.70;61.30;;;;;;5042870;27;87858;-55
2023/09/19 10:17:46;;;;;;;;;;;18.70;61.30;;;;;;5042688;27;88915;-51
2023/09/19 10:20:32;;;;;;;;;;;18.70;61.40;;;;;;5045027;27;87112;-52
2023/09/19 10:22:59;;;;;;;;;;;18.70;61.40;;;;;;5039959;28;89492;-51
2023/09/19 10:25:26;;;;;;;;;;;18.70;61.30;;;;;;5043822;28;87929;-53
2023/09/19 10:27:53;;;;;;;;;;;18.70;61.20;;;;;;5042040;27;88426;-53
2023/09/19 10:30:20;;;;;;;;;;;18.70;61.40;;;;;;5039820;27;88526;-53
2023/09/19 10:32:46;;;;;;;;;;;18.70;61.50;;;;;;5044229;27;87084;-51
2023/09/19 10:35:14;;;;;;;;;;;18.70;61.50;;;;;;5042871;27;88898;-55
2023/09/19 10:37:40;;;;;;;;;;;18.80;61.50;;;;;;5041956;27;88206;-52
2023/09/19 10:40:08;;;;;;;;;;;18.80;61.20;;;;;;5043460;28;87161;-52
2023/09/19 10:42:36;;;;;;;;;;;18.70;61.40;;;;;;5044083;27;86441;-55
2023/09/19 10:45:07;;;;;;;;;;;18.80;61.40;;;;;;5042823;27;87657;-53
2023/09/19 10:47:32;;;;;;;;;;;18.80;61.40;;;;;;5043607;27;88931;-51
2023/09/19 10:49:58;;;;;;;;;;;18.80;61.40;;;;;;5039868;27;90252;-52
2023/09/19 10:52:25;;;;;;;;;;;18.80;62.10;;;;;;5043746;27;87120;-53
2023/09/19 10:54:57;;;;;;;;;;;18.90;61.40;;;;;;5042297;27;88321;-51
2023/09/19 10:57:23;;;;;;;;;;;18.90;61.30;;;;;;5040720;27;89376;-54
2023/09/19 11:00:26;;;;;;;;;;;18.90;61.40;;;;;;5039707;28;87017;-51
2023/09/19 11:03:11;;;;;;;;;;;18.90;61.50;;;;;;5042834;28;87567;-53
2023/09/19 11:05:40;;;;;;;;;;;19.00;61.30;;;;;;5040606;27;87264;-52
2023/09/19 11:08:11;;;;;;;;;;;19.00;61.40;;;;;;5042441;27;86729;-53
2023/09/19 11:10:49;;;;;;;;;;;18.90;61.70;;;;;;5042611;27;89517;-55
2023/09/19 11:13:30;;;;;;;;;;;19.00;61.70;;;;;;5038752;27;87613;-56
2023/09/19 11:15:58;;;;;;;;;;;19.00;61.40;;;;;;5039135;27;88502;-52
2023/09/19 11:18:42;;;;;;;;;;;19.00;61.60;;;;;;5043235;28;88246;-54
2023/09/19 11:21:29;;;;;;;;;;;19.00;61.60;;;;;;5039687;27;87178;-55
2023/09/19 11:24:10;;;;;;;;;;;19.00;61.60;;;;;;5040134;27;87820;-53
2023/09/19 11:26:47;;;;;;;;;;;19.10;62.30;;;;;;5042077;27;87515;-55
2023/09/19 11:29:25;;;;;;;;;;;19.10;61.40;;;;;;5040032;28;89199;-54
2023/09/19 11:31:51;;;;;;;;;;;19.10;61.60;;;;;;5040369;27;88860;-55
2023/09/19 11:34:35;;;;;;;;;;;19.10;61.20;;;;;;5042088;27;88014;-54
2023/09/19 11:37:04;;;;;;;;;;;19.10;61.50;;;;;;5042143;28;87011;-54
2023/09/19 11:39:30;;;;;;;;;;;19.10;61.60;;;;;;5041780;27;88474;-52
2023/09/19 11:42:00;;;;;;;;;;;19.10;61.50;;;;;;5042892;27;89990;-55
2023/09/19 11:44:26;;;;;;;;;;;19.10;61.80;;;;;;5040899;27;89747;-53
2023/09/19 11:46:51;;;;;;;;;;;19.10;61.40;;;;;;5042441;27;89347;-55
2023/09/19 11:49:21;;;;;;;;;;;19.20;61.70;;;;;;5044676;27;87475;-51
2023/09/19 11:51:48;;;;;;;;;;;19.20;61.60;;;;;;5040388;27;88205;-53
2023/09/19 11:54:18;;;;;;;;;;;19.20;61.80;;;;;;5045353;27;87599;-54
2023/09/19 11:56:50;;;;;;;;;;;19.20;61.30;;;;;;5042752;27;89487;-53
2023/09/19 11:59:22;;;;;;;;;;;19.20;61.50;;;;;;5041297;27;86596;-52
2023/09/19 12:01:58;;;;;;;;;;;19.20;61.50;;;;;;5038540;27;87092;-54
2023/09/19 12:04:38;;;;;;;;;;;19.20;62.20;;;;;;5041668;28;87278;-53
2023/09/19 12:07:05;;;;;;;;;;;19.20;61.90;;;;;;5040658;27;89531;-54
2023/09/19 12:09:31;;;;;;;;;;;19.30;61.80;;;;;;5040435;27;87258;-56
2023/09/19 12:11:57;;;;;;;;;;;19.30;62.10;;;;;;5043484;27;88728;-52
2023/09/19 12:14:25;;;;;;;;;;;19.20;61.80;;;;;;5042387;28;87045;-51
2023/09/19 12:16:58;;;;;;;;;;;19.30;62.00;;;;;;5038099;28;87140;-53
2023/09/19 12:19:24;;;;;;;;;;;19.30;62.30;;;;;;5042572;27;89285;-51
2023/09/19 12:21:59;;;;;;;;;;;19.30;62.10;;;;;;5039529;27;87721;-51
2023/09/19 12:24:29;;;;;;;;;;;19.30;62.20;;;;;;5039038;28;87628;-55
2023/09/19 12:27:01;;;;;;;;;;;19.30;62.40;;;;;;5038629;27;88034;-54
2023/09/19 12:29:27;;;;;;;;;;;19.30;62.40;;;;;;5039964;27;87563;-53
2023/09/19 12:32:03;;;;;;;;;;;19.30;62.00;;;;;;5041671;28;89229;-52
2023/09/19 12:34:35;;;;;;;;;;;19.30;62.80;;;;;;5041928;28;89126;-55
2023/09/19 12:37:21;;;;;;;;;;;19.30;62.20;;;;;;5038743;27;87675;-53
2023/09/19 12:39:51;;;;;;;;;;;19.30;62.10;;;;;;5039538;27;87883;-55
2023/09/19 12:42:17;;;;;;;;;;;19.30;62.20;;;;;;5041942;27;87318;-55
2023/09/19 12:44:47;;;;;;;;;;;19.40;62.40;;;;;;5037170;27;87444;-53
2023/09/19 12:47:18;;;;;;;;;;;19.40;62.40;;;;;;5041240;27;89526;-53
2023/09/19 12:50:02;;;;;;;;;;;19.30;63.70;;;;;;5039458;27;86481;-51
2023/09/19 12:52:33;;;;;;;;;;;19.60;66.20;;;;;;5041145;28;88703;-47
2023/09/19 12:55:02;;;;;;;;;;;19.70;65.40;;;;;;5046120;27;88249;-51
2023/09/19 12:57:31;;;;;;;;;;;19.70;65.10;;;;;;5037434;27;88452;-51
2023/09/19 12:59:57;;;;;;;;;;;19.80;64.90;;;;;;5041438;28;87320;-53
2023/09/19 13:02:25;;;;;;;;;;;19.90;65.40;;;;;;5040480;28;87199;-51
2023/09/19 13:04:56;;;;;;;;;;;20.00;65.20;;;;;;5039815;27;88753;-52
2023/09/19 13:07:43;;;;;;;;;;;20.00;64.80;;;;;;5039403;27;88706;-55
2023/09/19 13:10:10;;;;;;;;;;;20.10;64.70;;;;;;5041781;27;87166;-57
2023/09/19 13:12:37;;;;;;;;;;;20.10;65.00;;;;;;5036482;27;87692;-50
2023/09/19 13:15:13;;;;;;;;;;;20.20;65.40;;;;;;5039088;27;87889;-51
2023/09/19 13:17:46;;;;;;;;;;;20.20;64.90;;;;;;5043556;28;87078;-56
2023/09/19 13:20:27;;;;;;;;;;;20.30;64.90;;;;;;5037677;28;88555;-56
2023/09/19 13:22:54;;;;;;;;;;;20.30;64.60;;;;;;5037951;27;89629;-55
2023/09/19 13:25:20;;;;;;;;;;;20.40;65.10;;;;;;5037199;27;88929;-54
2023/09/19 13:27:48;;;;;;;;;;;20.40;64.60;;;;;;5041634;27;88163;-52
2023/09/19 13:30:14;;;;;;;;;;;20.50;64.70;;;;;;5040816;27;87123;-56
2023/09/19 13:32:40;;;;;;;;;;;20.50;64.90;;;;;;5038068;27;88963;-54
2023/09/19 13:35:08;;;;;;;;;;;20.60;65.60;;;;;;5040311;27;88334;-49
2023/09/19 13:37:40;;;;;;;;;;;20.60;66.40;;;;;;5040895;27;87671;-55
2023/09/19 13:40:09;;;;;;;;;;;20.70;66.20;;;;;;5044135;27;87640;-56
2023/09/19 13:42:36;;;;;;;;;;;20.80;68.00;;;;;;5041365;27;87106;-51
2023/09/19 13:45:04;;;;;;;;;;;20.80;68.10;;;;;;5043623;28;87347;-50
2023/09/19 13:47:30;;;;;;;;;;;20.80;66.10;;;;;;5043509;27;89175;-58
2023/09/19 13:49:56;;;;;;;;;;;20.90;67.40;;;;;;5042135;27;87122;-53
2023/09/19 13:52:23;;;;;;;;;;;20.80;67.10;;;;;;5040839;27;89450;-53
2023/09/19 13:54:52;;;;;;;;;;;20.90;66.50;;;;;;5044301;28;87982;-54
2023/09/19 13:57:18;;;;;;;;;;;20.90;67.30;;;;;;5044204;28;87336;-54
2023/09/19 13:59:43;;;;;;;;;;;21.00;66.20;;;;;;5042614;27;87165;-51
2023/09/19 14:02:09;;;;;;;;;;;21.00;65.10;;;;;;5043377;27;88187;-53
2023/09/19 14:04:35;;;;;;;;;;;21.00;64.90;;;;;;5045149;27;87614;-49
2023/09/19 14:07:01;;;;;;;;;;;20.90;65.40;;;;;;5045906;27;88882;-51
2023/09/19 14:09:26;;;;;;;;;;;20.90;65.00;;;;;;5043224;27;87307;-51
2023/09/19 14:11:52;;;;;;;;;;;21.00;64.70;;;;;;5041970;27;88636;-49
2023/09/19 14:14:21;;;;;;;;;;;21.00;64.20;;;;;;5044202;28;88455;-50
2023/09/19 14:16:49;;;;;;;;;;;21.10;64.20;;;;;;5042414;27;87892;-53
2023/09/19 14:19:16;;;;;;;;;;;21.10;64.00;;;;;;5040511;27;88850;-50
2023/09/19 14:21:42;;;;;;;;;;;21.10;63.80;;;;;;5043835;28;89428;-54
2023/09/19 14:24:12;;;;;;;;;;;21.10;63.80;;;;;;5046230;27;87246;-49